createdAt,value
2022-08-19T00:04:42.972Z,99554.41
2022-08-19T00:09:45.699Z,99553.75
2022-08-19T00:14:49.865Z,99562.69
2022-08-19T00:19:52.619Z,99527.16
2022-08-19T00:24:55.326Z,99538.19
2022-08-19T00:30:02.913Z,99541.38
2022-08-19T00:35:06.329Z,99532.06
2022-08-19T00:40:10.272Z,99541.25
2022-08-19T00:45:18.316Z,99545.53
2022-08-19T00:50:22.001Z,99528.69
2022-08-19T00:55:29.690Z,99534.41
2022-08-19T01:00:37.504Z,99534.72
2022-08-19T01:05:42.327Z,99543.00
2022-08-19T01:10:48.345Z,99524.06
2022-08-19T01:15:56.444Z,99512.59
2022-08-19T01:21:16.957Z,99490.66
2022-08-19T01:26:25.360Z,99499.91
2022-08-19T01:31:32.681Z,99505.94
2022-08-19T01:36:38.308Z,99507.69
2022-08-19T01:41:42.618Z,99466.38
2022-08-19T01:46:45.591Z,99432.28
2022-08-19T01:51:50.395Z,99437.88
2022-08-19T01:56:55.560Z,99451.44
2022-08-19T02:01:58.467Z,99446.56
2022-08-19T02:07:01.250Z,99458.50
2022-08-19T02:12:05.669Z,99459.41
2022-08-19T02:17:08.345Z,99458.63
2022-08-19T02:22:11.104Z,99473.13
2022-08-19T02:27:15.262Z,99474.84
2022-08-19T02:32:19.767Z,99469.03
2022-08-19T02:37:39.975Z,99458.09
2022-08-19T02:42:44.097Z,99438.34
2022-08-19T02:47:46.875Z,99426.78
2022-08-19T02:52:49.720Z,99428.28
2022-08-19T02:57:53.833Z,99435.25
2022-08-19T03:02:56.952Z,99477.41
2022-08-19T03:07:59.945Z,99497.69
2022-08-19T03:13:04.945Z,99527.44
2022-08-19T03:18:07.900Z,99525.91
2022-08-19T03:23:12.310Z,99518.81
2022-08-19T03:28:16.967Z,99506.53
2022-08-19T03:33:28.494Z,99523.59
2022-08-19T03:38:31.476Z,99556.44
2022-08-19T03:43:36.673Z,99564.22
2022-08-19T03:48:41.002Z,99552.03
2022-08-19T03:53:43.689Z,99543.22
2022-08-19T03:58:48.257Z,99551.22
2022-08-19T04:03:51.223Z,99548.41
2022-08-19T04:08:55.787Z,99563.97
2022-08-19T04:14:00.400Z,99552.25
2022-08-19T04:19:08.472Z,99549.56
2022-08-19T04:24:11.568Z,99552.72
2022-08-19T04:29:17.781Z,99543.53
2022-08-19T04:34:23.451Z,99532.91
2022-08-19T04:39:44.520Z,99524.78
2022-08-19T04:44:48.767Z,99532.78
2022-08-19T04:49:51.425Z,99540.78
2022-08-19T04:54:56.273Z,99543.34
2022-08-19T05:00:00.375Z,99545.78
2022-08-19T05:05:03.189Z,99550.63
2022-08-19T05:10:07.498Z,99552.03
2022-08-19T05:15:12.599Z,99555.06
2022-08-19T05:20:32.825Z,99557.38
2022-08-19T05:25:35.572Z,99558.75
2022-08-19T05:30:47.255Z,99557.72
2022-08-19T05:35:51.047Z,99560.72
2022-08-19T05:40:53.868Z,99567.47
2022-08-19T05:45:58.057Z,99591.63
2022-08-19T05:51:06.388Z,99594.97
2022-08-19T05:56:10.219Z,99590.81
2022-08-19T06:01:16.613Z,99598.69
2022-08-19T06:06:19.958Z,99600.78
2022-08-19T06:11:25.059Z,99603.81
2022-08-19T06:16:31.071Z,99601.16
2022-08-19T06:21:33.896Z,99610.19
2022-08-19T06:26:38.252Z,99618.56
2022-08-19T06:31:45.889Z,99631.19
2022-08-19T06:36:52.102Z,99658.03
2022-08-19T06:41:58.657Z,99682.06
2022-08-19T06:47:14.219Z,99686.69
2022-08-19T06:52:17.993Z,99691.09
2022-08-19T06:57:20.706Z,99697.84
2022-08-19T07:02:27.271Z,99718.25
2022-08-19T07:07:29.990Z,99714.63
2022-08-19T07:12:35.790Z,99734.81
2022-08-19T07:17:41.787Z,99727.38
2022-08-19T07:22:44.848Z,99733.41
2022-08-19T07:27:48.705Z,99735.91
2022-08-19T07:32:58.854Z,99744.22
2022-08-19T07:38:03.611Z,99730.88
2022-08-19T07:43:06.381Z,99731.44
2022-08-19T07:48:11.461Z,99739.66
2022-08-19T07:53:14.363Z,99745.00
2022-08-19T07:58:20.207Z,99743.72
2022-08-19T08:03:45.465Z,99735.72
2022-08-19T08:09:06.946Z,99738.09
2022-08-19T08:14:34.886Z,99748.63
2022-08-19T08:19:35.182Z,99757.06
2022-08-19T08:24:38.238Z,99760.13
2022-08-19T08:29:43.234Z,99759.53
2022-08-19T08:34:51.732Z,99758.59
2022-08-19T08:39:55.485Z,99755.94
2022-08-19T08:45:02.187Z,99759.78
2022-08-19T08:50:07.963Z,99786.03
2022-08-19T08:55:13.916Z,99779.28
2022-08-19T09:00:20.682Z,99787.41
2022-08-19T09:05:26.284Z,99775.94
2022-08-19T09:10:32.795Z,99777.72
2022-08-19T09:15:38.875Z,99766.34
2022-08-19T09:20:43.218Z,99768.19
2022-08-19T09:25:46.176Z,99777.94
2022-08-19T09:30:48.900Z,99788.94
2022-08-19T09:36:04.423Z,99785.97
2022-08-19T09:41:14.515Z,99774.97
2022-08-19T09:46:19.090Z,99775.41
2022-08-19T09:51:25.718Z,99767.16
2022-08-19T09:56:28.513Z,99740.19
2022-08-19T10:01:32.710Z,99718.69
2022-08-19T10:06:46.486Z,99732.50
2022-08-19T10:11:54.995Z,99740.53
2022-08-19T10:16:59.104Z,99762.34
2022-08-19T10:22:05.316Z,99763.56
2022-08-19T10:27:14.182Z,99776.81
2022-08-19T10:32:18.865Z,99791.31
2022-08-19T10:37:44.942Z,99786.88
2022-08-19T10:42:59.967Z,99787.00
2022-08-19T10:48:02.661Z,99795.97
2022-08-19T10:53:09.841Z,99790.50
2022-08-19T10:58:14.406Z,99782.78
2022-08-19T11:03:17.186Z,99788.63
2022-08-19T11:08:23.303Z,99789.09
2022-08-19T11:13:26.756Z,99787.81
2022-08-19T11:18:29.826Z,99802.69
2022-08-19T11:23:33.960Z,99801.50
2022-08-19T11:28:37.143Z,99810.56
2022-08-19T11:33:39.872Z,99816.41
2022-08-19T11:38:44.346Z,99822.31
2022-08-19T11:43:47.171Z,99838.19
2022-08-19T11:48:50.651Z,99820.69
2022-08-19T11:53:55.159Z,99821.38
2022-08-19T11:58:58.619Z,99808.25
2022-08-19T12:04:01.880Z,99810.53
2022-08-19T12:09:08.495Z,99791.22
2022-08-19T12:14:15.075Z,99794.44
2022-08-19T12:19:22.439Z,99783.50
2022-08-19T12:24:27.199Z,99793.22
2022-08-19T12:29:30.645Z,99786.59
2022-08-19T12:34:34.643Z,99790.69
2022-08-19T12:39:40.527Z,99793.66
2022-08-19T12:44:44.798Z,99802.44
2022-08-19T12:49:54.622Z,99806.34
2022-08-19T12:55:00.111Z,99810.91
2022-08-19T13:00:08.972Z,99807.16
2022-08-19T13:05:14.248Z,99817.06
2022-08-19T13:10:21.128Z,99820.31
2022-08-19T13:15:25.000Z,99831.03
2022-08-19T13:20:27.907Z,99821.97
2022-08-19T13:25:32.206Z,99822.44
2022-08-19T13:30:52.448Z,99818.69
2022-08-19T13:36:01.281Z,99819.69
2022-08-19T13:41:12.177Z,99822.88
2022-08-19T13:46:17.620Z,99811.09
2022-08-19T13:51:20.577Z,99806.88
2022-08-19T13:56:26.398Z,99805.72
2022-08-19T14:01:31.423Z,99818.44
2022-08-19T14:06:34.392Z,99817.72
2022-08-19T14:11:39.059Z,99810.94
2022-08-19T14:16:42.081Z,99811.28
2022-08-19T14:21:45.037Z,99824.59
2022-08-19T14:26:49.794Z,99814.84
2022-08-19T14:31:52.682Z,99823.69
2022-08-19T14:36:55.646Z,99827.31
2022-08-19T14:42:00.047Z,99821.25
2022-08-19T14:47:04.165Z,99828.63
2022-08-19T14:52:07.700Z,99826.66
2022-08-19T14:57:13.406Z,99821.19
2022-08-19T15:02:33.620Z,99817.13
2022-08-19T15:07:37.893Z,99825.38
2022-08-19T15:12:43.478Z,99826.66
2022-08-19T15:17:47.356Z,99829.63
2022-08-19T15:22:50.227Z,99824.19
2022-08-19T15:27:54.728Z,99807.56
2022-08-19T15:32:59.771Z,99806.66
2022-08-19T15:38:02.563Z,99824.88
2022-08-19T15:43:06.879Z,99823.72
2022-08-19T15:48:09.687Z,99822.66
2022-08-19T15:53:12.727Z,99813.38
2022-08-19T15:58:34.158Z,99815.38
2022-08-19T16:03:54.710Z,99807.91
2022-08-19T16:08:59.420Z,99819.19
2022-08-19T16:14:04.159Z,99812.78
2022-08-19T16:19:11.807Z,99808.72
2022-08-19T16:24:16.618Z,99798.75
2022-08-19T16:29:33.844Z,99793.16
2022-08-19T16:34:38.007Z,99804.66
2022-08-19T16:39:41.276Z,99802.09
2022-08-19T16:44:47.779Z,99793.38
2022-08-19T16:49:52.990Z,99801.19
2022-08-19T16:54:58.264Z,99812.91
2022-08-19T17:00:05.368Z,99827.78
2022-08-19T17:05:10.025Z,99821.75
2022-08-19T17:10:12.810Z,99829.31
2022-08-19T17:15:16.971Z,99826.03
2022-08-19T17:20:20.283Z,99822.53
2022-08-19T17:25:23.110Z,99820.44
2022-08-19T17:30:27.485Z,99809.06
2022-08-19T17:35:30.404Z,99815.69
2022-08-19T17:40:33.473Z,99818.59
2022-08-19T17:45:38.732Z,99829.88
2022-08-19T17:50:41.674Z,99820.22
2022-08-19T17:55:44.995Z,99829.72
2022-08-19T18:00:54.463Z,99835.66
2022-08-19T18:05:58.558Z,99824.16
2022-08-19T18:11:01.397Z,99819.88
2022-08-19T18:16:06.953Z,99830.78
2022-08-19T18:21:10.477Z,99818.13
2022-08-19T18:26:13.527Z,99823.31
2022-08-19T18:31:18.021Z,99845.63
2022-08-19T18:36:37.727Z,99850.84
2022-08-19T18:42:01.958Z,99871.44
2022-08-19T18:47:23.454Z,99869.00
2022-08-19T18:52:27.230Z,99876.66
2022-08-19T18:57:30.136Z,99891.50
2022-08-19T19:02:38.872Z,99890.91
2022-08-19T19:07:41.726Z,99909.00
2022-08-19T19:12:45.587Z,99892.63
2022-08-19T19:17:50.025Z,99904.59
2022-08-19T19:22:53.694Z,99916.16
2022-08-19T19:28:01.158Z,99915.41
2022-08-19T19:33:05.929Z,99911.50
2022-08-19T19:38:08.636Z,99896.28
2022-08-19T19:43:11.350Z,99896.53
2022-08-19T19:48:16.442Z,99890.34
2022-08-19T19:53:19.343Z,99882.78
2022-08-19T19:58:28.354Z,99889.41
2022-08-19T20:03:33.646Z,99899.28
2022-08-19T20:08:54.079Z,99894.97
2022-08-19T20:13:57.162Z,99919.06
2022-08-19T20:19:02.646Z,99914.38
2022-08-19T20:24:08.982Z,99908.75
2022-08-19T20:29:38.439Z,99904.19
2022-08-19T20:34:37.173Z,99901.13
2022-08-19T20:39:39.953Z,99897.25
2022-08-19T20:44:42.718Z,99889.44
2022-08-19T20:49:47.587Z,99884.06
2022-08-19T20:54:50.283Z,99882.16
2022-08-19T20:59:53.008Z,99881.13
2022-08-19T21:05:00.359Z,99901.63
2022-08-19T21:10:03.183Z,99907.88
2022-08-19T21:15:08.736Z,99930.88
2022-08-19T21:20:13.470Z,99924.72
2022-08-19T21:25:17.066Z,99937.91
2022-08-19T21:30:19.976Z,99943.53
2022-08-19T21:35:24.417Z,99937.75
2022-08-19T21:40:28.028Z,99934.16
2022-08-19T21:45:31.297Z,99937.59
2022-08-19T21:50:35.599Z,99933.66
2022-08-19T21:55:39.069Z,99926.69
2022-08-19T22:00:42.027Z,99907.03
2022-08-19T22:05:46.168Z,99906.44
2022-08-19T22:10:49.835Z,99915.28
2022-08-19T22:15:55.260Z,99909.63
2022-08-19T22:20:59.359Z,99910.66
2022-08-19T22:26:02.393Z,99906.56
2022-08-19T22:31:05.841Z,99904.41
2022-08-19T22:36:10.825Z,99906.84
2022-08-19T22:41:13.512Z,99913.22
2022-08-19T22:46:17.314Z,99919.59
2022-08-19T22:51:39.564Z,99928.03
2022-08-19T22:56:43.332Z,99935.47
2022-08-19T23:01:46.269Z,99944.19
2022-08-19T23:06:52.796Z,99924.94
2022-08-19T23:11:55.566Z,99914.41
2022-08-19T23:16:59.246Z,99910.91
2022-08-19T23:22:05.192Z,99930.44
2022-08-19T23:27:25.571Z,99911.03
2022-08-19T23:32:28.322Z,99919.44
2022-08-19T23:37:32.482Z,99914.06
2022-08-19T23:42:35.340Z,99913.03
2022-08-19T23:47:41.270Z,99913.69
2022-08-19T23:52:49.704Z,99919.56
2022-08-19T23:57:52.449Z,99923.34
